createdAt,value
2022-11-25T00:00:35.047Z,98909.44
2022-11-25T00:02:08.282Z,98907.63
2022-11-25T00:03:42.102Z,98913.91
2022-11-25T00:05:15.520Z,98906.84
2022-11-25T00:06:48.748Z,98910.44
2022-11-25T00:08:20.915Z,98914.84
2022-11-25T00:09:54.127Z,98913.84
2022-11-25T00:11:28.736Z,98919.13
2022-11-25T00:13:02.003Z,98919.13
2022-11-25T00:14:36.934Z,98920.84
2022-11-25T00:16:11.259Z,98918.34
2022-11-25T00:17:44.541Z,98922.94
2022-11-25T00:19:18.391Z,98924.53
2022-11-25T00:20:51.534Z,98927.09
2022-11-25T00:22:24.759Z,98923.56
2022-11-25T00:23:59.496Z,98919.25
2022-11-25T00:25:32.701Z,98918.41
2022-11-25T00:27:05.948Z,98921.88
2022-11-25T00:28:41.269Z,98927.97
2022-11-25T00:30:17.336Z,98924.53
2022-11-25T00:31:50.525Z,98918.34
2022-11-25T00:33:22.899Z,98912.38
2022-11-25T00:34:56.477Z,98921.59
2022-11-25T00:36:31.988Z,98914.72
2022-11-25T00:38:04.111Z,98913.84
2022-11-25T00:39:38.427Z,98927.09
2022-11-25T00:41:29.333Z,98927.00
2022-11-25T00:43:20.174Z,98926.25
2022-11-25T00:44:53.417Z,98928.09
2022-11-25T00:46:27.093Z,98921.94
2022-11-25T00:48:00.257Z,98922.09
2022-11-25T00:49:32.486Z,98911.47
2022-11-25T00:51:06.071Z,98927.31
2022-11-25T00:52:39.310Z,98920.16
2022-11-25T00:54:12.950Z,98920.22
2022-11-25T00:56:03.442Z,98923.84
2022-11-25T00:57:36.647Z,98919.50
2022-11-25T00:59:10.602Z,98922.16
2022-11-25T01:00:44.745Z,98928.19
2022-11-25T01:02:20.506Z,98923.84
2022-11-25T01:03:53.062Z,98915.81
2022-11-25T01:05:26.416Z,98917.53
2022-11-25T01:07:02.251Z,98922.81
2022-11-25T01:08:36.473Z,98924.53
2022-11-25T01:10:10.627Z,98926.25
2022-11-25T01:11:45.065Z,98928.03
2022-11-25T01:13:18.353Z,98940.13
2022-11-25T01:14:51.569Z,98934.84
2022-11-25T01:16:23.917Z,98939.41
2022-11-25T01:17:58.548Z,98949.09
2022-11-25T01:19:31.854Z,98938.53
2022-11-25T01:21:06.726Z,98949.22
2022-11-25T01:22:40.038Z,98936.81
2022-11-25T01:24:14.046Z,98942.09
2022-11-25T01:25:47.270Z,98943.94
2022-11-25T01:27:20.486Z,98938.66
2022-11-25T01:28:56.526Z,98943.94
2022-11-25T01:30:29.814Z,98947.38
2022-11-25T01:32:03.153Z,98955.31
2022-11-25T01:33:37.839Z,98949.09
2022-11-25T01:35:11.823Z,98940.38
2022-11-25T01:36:45.802Z,98946.47
2022-11-25T01:38:17.991Z,98961.47
2022-11-25T01:39:51.267Z,98949.25
2022-11-25T01:41:26.861Z,98948.47
2022-11-25T01:43:00.111Z,98942.31
2022-11-25T01:44:34.618Z,98952.00
2022-11-25T01:46:12.046Z,98944.09
2022-11-25T01:47:45.493Z,98943.16
2022-11-25T01:49:23.374Z,98944.97
2022-11-25T01:50:56.819Z,98945.78
2022-11-25T01:52:36.052Z,98947.59
2022-11-25T01:54:13.003Z,98949.09
2022-11-25T01:55:50.092Z,98956.09
2022-11-25T01:57:27.910Z,98949.31
2022-11-25T01:59:01.211Z,98952.66
2022-11-25T02:00:34.686Z,98951.19
2022-11-25T02:02:09.899Z,98956.19
2022-11-25T02:03:46.180Z,98958.72
2022-11-25T02:05:27.367Z,98955.31
2022-11-25T02:07:09.285Z,98957.06
2022-11-25T02:08:44.894Z,98965.03
2022-11-25T02:10:22.658Z,98964.13
2022-11-25T02:11:56.380Z,98970.22
2022-11-25T02:13:29.959Z,98962.34
2022-11-25T02:15:03.159Z,98971.19
2022-11-25T02:16:36.723Z,98965.03
2022-11-25T02:18:10.211Z,98959.03
2022-11-25T02:20:00.549Z,98966.91
2022-11-25T02:21:44.934Z,98961.69
2022-11-25T02:23:27.343Z,98960.81
2022-11-25T02:25:11.560Z,98973.13
2022-11-25T02:26:45.063Z,98968.72
2022-11-25T02:28:20.554Z,98965.16
2022-11-25T02:29:54.211Z,98968.63
2022-11-25T02:31:27.452Z,98963.34
2022-11-25T02:33:01.652Z,98960.63
2022-11-25T02:34:35.149Z,98967.00
2022-11-25T02:36:13.990Z,98961.72
2022-11-25T02:37:46.364Z,98961.72
2022-11-25T02:39:21.505Z,98948.66
2022-11-25T02:41:01.185Z,98961.63
2022-11-25T02:42:33.722Z,98952.00
2022-11-25T02:44:07.681Z,98956.56
2022-11-25T02:45:51.273Z,98955.59
2022-11-25T02:47:26.221Z,98961.72
2022-11-25T02:49:09.001Z,98955.59
2022-11-25T02:50:42.214Z,98956.34
2022-11-25T02:52:15.379Z,98954.50
2022-11-25T02:53:49.012Z,98951.91
2022-11-25T02:55:23.948Z,98955.34
2022-11-25T02:56:58.474Z,98959.03
2022-11-25T02:58:31.941Z,98952.88
2022-11-25T03:00:06.116Z,98958.16
2022-11-25T03:01:40.309Z,98951.97
2022-11-25T03:03:16.187Z,98963.44
2022-11-25T03:04:49.495Z,98957.19
2022-11-25T03:06:25.797Z,98961.72
2022-11-25T03:07:58.416Z,98954.59
2022-11-25T03:09:32.035Z,98958.78
2022-11-25T03:11:05.957Z,98962.25
2022-11-25T03:12:40.198Z,98952.53
2022-11-25T03:14:13.690Z,98971.13
2022-11-25T03:15:48.742Z,98957.94
2022-11-25T03:17:21.031Z,98957.81
2022-11-25T03:18:54.343Z,98957.94
2022-11-25T03:20:27.464Z,98964.88
2022-11-25T03:21:59.790Z,98958.84
2022-11-25T03:23:33.003Z,98966.91
2022-11-25T03:25:08.054Z,98961.47
2022-11-25T03:26:41.594Z,98966.66
2022-11-25T03:28:16.318Z,98964.81
2022-11-25T03:29:49.522Z,98970.09
2022-11-25T03:31:22.984Z,98965.72
2022-11-25T03:32:56.385Z,98976.47
2022-11-25T03:34:30.673Z,98969.59
2022-11-25T03:36:04.258Z,98974.00
2022-11-25T03:37:37.979Z,98980.88
2022-11-25T03:39:13.649Z,98980.78
2022-11-25T03:40:47.446Z,98982.50
2022-11-25T03:42:20.790Z,98989.63
2022-11-25T03:43:55.422Z,98982.75
2022-11-25T03:45:29.640Z,98995.06
2022-11-25T03:47:04.614Z,98979.16
2022-11-25T03:48:38.672Z,98990.66
2022-11-25T03:50:15.023Z,98991.44
2022-11-25T03:51:49.384Z,98981.97
2022-11-25T03:53:25.836Z,98989.84
2022-11-25T03:54:59.383Z,98996.00
2022-11-25T03:56:37.530Z,98994.09
2022-11-25T03:58:09.818Z,99000.28
2022-11-25T03:59:44.467Z,99003.84
2022-11-25T04:01:17.724Z,99012.56
2022-11-25T04:02:52.479Z,99006.34
2022-11-25T04:04:26.034Z,99012.50
2022-11-25T04:05:59.682Z,99005.56
2022-11-25T04:07:32.949Z,99011.56
2022-11-25T04:09:06.790Z,99017.72
2022-11-25T04:10:40.057Z,99017.84
2022-11-25T04:12:32.361Z,99013.66
2022-11-25T04:14:10.309Z,99024.97
2022-11-25T04:15:47.958Z,99022.38
2022-11-25T04:17:21.582Z,99027.53
2022-11-25T04:18:54.924Z,99016.22
2022-11-25T04:20:28.487Z,99025.91
2022-11-25T04:22:07.800Z,99021.50
2022-11-25T04:23:44.601Z,99028.59
2022-11-25T04:25:19.821Z,99020.13
2022-11-25T04:26:52.618Z,99020.69
2022-11-25T04:28:26.525Z,99019.78
2022-11-25T04:29:59.742Z,99023.47
2022-11-25T04:31:35.386Z,99027.00
2022-11-25T04:33:08.846Z,99035.94
2022-11-25T04:34:41.071Z,99027.31
2022-11-25T04:36:14.903Z,99031.59
2022-11-25T04:37:48.379Z,99031.66
2022-11-25T04:39:20.832Z,99035.28
2022-11-25T04:40:58.108Z,99037.16
2022-11-25T04:42:33.345Z,99041.56
2022-11-25T04:44:09.494Z,99039.88
2022-11-25T04:46:12.477Z,99039.88
2022-11-25T04:47:39.696Z,99045.00
2022-11-25T04:49:13.384Z,99043.19
2022-11-25T04:50:46.972Z,99048.53
2022-11-25T04:52:19.468Z,99043.19
2022-11-25T04:53:54.520Z,99055.47
2022-11-25T04:55:28.875Z,99048.47
2022-11-25T04:57:02.480Z,99066.00
2022-11-25T04:58:53.417Z,99053.75
2022-11-25T05:00:26.701Z,99054.66
2022-11-25T05:01:59.124Z,99055.56
2022-11-25T05:03:48.789Z,99058.28
2022-11-25T05:05:24.475Z,99059.16
2022-11-25T05:06:56.682Z,99059.13
2022-11-25T05:08:32.148Z,99067.88
2022-11-25T05:10:06.942Z,99070.31
2022-11-25T05:11:44.428Z,99079.22
2022-11-25T05:13:17.903Z,99072.09
2022-11-25T05:14:51.411Z,99084.47
2022-11-25T05:16:24.863Z,99082.63
2022-11-25T05:17:59.153Z,99084.53
2022-11-25T05:19:47.621Z,99061.28
2022-11-25T05:21:21.732Z,99081.94
2022-11-25T05:22:54.922Z,99081.75
2022-11-25T05:24:29.163Z,99087.91
2022-11-25T05:26:02.941Z,99088.00
2022-11-25T05:27:42.419Z,99089.75
2022-11-25T05:29:15.655Z,99081.00
2022-11-25T05:30:49.400Z,99089.19
2022-11-25T05:32:22.711Z,99091.03
2022-11-25T05:33:55.353Z,99101.44
2022-11-25T05:35:31.686Z,99098.75
2022-11-25T05:37:05.340Z,99087.47
2022-11-25T05:38:40.655Z,99104.22
2022-11-25T05:40:16.229Z,99098.00
2022-11-25T05:41:57.561Z,99108.66
2022-11-25T05:43:30.792Z,99104.31
2022-11-25T05:45:04.624Z,99111.34
2022-11-25T05:46:39.258Z,99110.63
2022-11-25T05:48:11.722Z,99113.25
2022-11-25T05:49:45.095Z,99120.34
2022-11-25T05:51:19.954Z,99108.22
2022-11-25T05:52:54.003Z,99127.47
2022-11-25T05:54:27.300Z,99124.81
2022-11-25T05:56:02.322Z,99127.47
2022-11-25T05:57:54.199Z,99116.00
2022-11-25T05:59:27.997Z,99136.38
2022-11-25T06:01:24.500Z,99139.22
2022-11-25T06:02:57.834Z,99139.97
2022-11-25T06:04:31.133Z,99139.13
2022-11-25T06:06:05.190Z,99137.28
2022-11-25T06:07:39.876Z,99142.56
2022-11-25T06:09:14.462Z,99141.72
2022-11-25T06:10:48.020Z,99154.97
2022-11-25T06:12:22.061Z,99164.50
2022-11-25T06:13:57.524Z,99151.31
2022-11-25T06:15:30.813Z,99158.38
2022-11-25T06:17:05.549Z,99172.31
2022-11-25T06:18:43.688Z,99174.22
2022-11-25T06:20:18.158Z,99158.81
2022-11-25T06:21:52.328Z,99176.25
2022-11-25T06:23:27.455Z,99179.72
2022-11-25T06:25:03.825Z,99182.28
2022-11-25T06:26:39.684Z,99182.13
2022-11-25T06:28:13.658Z,99195.22
2022-11-25T06:29:51.213Z,99188.34
2022-11-25T06:31:26.899Z,99191.88
2022-11-25T06:33:10.002Z,99188.25
2022-11-25T06:34:43.275Z,99196.09
2022-11-25T06:36:50.354Z,99192.63
2022-11-25T06:38:23.564Z,99193.50
2022-11-25T06:39:58.142Z,99200.59
2022-11-25T06:41:31.475Z,99205.81
2022-11-25T06:43:05.786Z,99199.91
2022-11-25T06:44:38.996Z,99217.84
2022-11-25T06:46:13.897Z,99209.34
2022-11-25T06:47:47.270Z,99217.94
2022-11-25T06:49:20.535Z,99217.94
2022-11-25T06:50:57.850Z,99216.34
2022-11-25T06:52:31.654Z,99222.34
2022-11-25T06:54:05.113Z,99207.41
2022-11-25T06:55:39.684Z,99222.03
2022-11-25T06:57:14.182Z,99222.53
2022-11-25T06:58:48.900Z,99223.34
2022-11-25T07:00:22.843Z,99224.25
2022-11-25T07:01:56.716Z,99229.44
2022-11-25T07:03:30.321Z,99221.38
2022-11-25T07:05:03.534Z,99234.50
2022-11-25T07:06:37.235Z,99224.16
2022-11-25T07:08:10.413Z,99242.03
2022-11-25T07:09:43.705Z,99231.72
2022-11-25T07:11:20.600Z,99240.06
2022-11-25T07:12:53.810Z,99240.16
2022-11-25T07:14:27.152Z,99233.81
2022-11-25T07:16:03.188Z,99238.75
2022-11-25T07:17:36.453Z,99237.31
2022-11-25T07:19:09.677Z,99229.31
2022-11-25T07:20:42.934Z,99230.72
2022-11-25T07:22:16.151Z,99235.78
2022-11-25T07:23:50.136Z,99241.78
2022-11-25T07:25:27.889Z,99239.09
2022-11-25T07:27:06.992Z,99246.91
2022-11-25T07:28:40.913Z,99242.19
2022-11-25T07:31:21.651Z,99241.13
2022-11-25T07:32:10.771Z,99248.41
2022-11-25T07:33:44.623Z,99246.44
2022-11-25T07:35:17.957Z,99250.81
2022-11-25T07:36:51.992Z,99243.81
2022-11-25T07:38:25.203Z,99250.03
2022-11-25T07:39:58.458Z,99250.50
2022-11-25T07:41:32.100Z,99242.44
2022-11-25T07:43:06.655Z,99247.09
2022-11-25T07:44:39.841Z,99255.88
2022-11-25T07:46:52.396Z,99264.53
2022-11-25T07:48:25.733Z,99260.03
2022-11-25T07:49:58.961Z,99278.69
2022-11-25T07:51:34.970Z,99268.16
2022-11-25T07:53:08.159Z,99270.13
2022-11-25T07:54:41.365Z,99274.75
2022-11-25T07:56:15.323Z,99277.59
2022-11-25T07:57:48.498Z,99290.25
2022-11-25T07:59:24.291Z,99285.13
2022-11-25T08:00:57.935Z,99279.88
2022-11-25T08:02:31.200Z,99283.09
2022-11-25T08:04:04.544Z,99287.31
2022-11-25T08:05:37.710Z,99289.97
2022-11-25T08:07:12.163Z,99296.13
2022-11-25T08:08:46.356Z,99292.59
2022-11-25T08:10:19.733Z,99301.22
2022-11-25T08:11:53.671Z,99305.00
2022-11-25T08:13:27.049Z,99297.66
2022-11-25T08:15:01.682Z,99297.56
2022-11-25T08:16:35.124Z,99302.84
2022-11-25T08:18:08.320Z,99297.56
2022-11-25T08:19:41.610Z,99305.69
2022-11-25T08:21:16.630Z,99305.16
2022-11-25T08:22:49.872Z,99304.13
2022-11-25T08:24:23.167Z,99309.34
2022-11-25T08:25:56.417Z,99299.56
2022-11-25T08:27:29.725Z,99308.47
2022-11-25T08:29:04.657Z,99320.09
2022-11-25T08:30:39.277Z,99318.44
2022-11-25T08:32:12.438Z,99319.13
2022-11-25T08:33:46.006Z,99310.44
2022-11-25T08:35:19.842Z,99328.06
2022-11-25T08:36:53.522Z,99324.31
2022-11-25T08:38:26.944Z,99319.22
2022-11-25T08:40:00.806Z,99317.56
2022-11-25T08:41:36.975Z,99324.50
2022-11-25T08:43:10.315Z,99332.22
2022-11-25T08:44:43.544Z,99327.84
2022-11-25T08:46:20.935Z,99329.59
2022-11-25T08:47:54.132Z,99328.47
2022-11-25T08:49:32.791Z,99323.47
2022-11-25T08:51:12.770Z,99328.38
2022-11-25T08:52:46.097Z,99327.44
2022-11-25T08:54:19.360Z,99323.00
2022-11-25T08:55:52.512Z,99335.41
2022-11-25T08:57:25.751Z,99333.81
2022-11-25T08:59:00.218Z,99339.94
2022-11-25T09:00:33.437Z,99339.03
2022-11-25T09:02:09.687Z,99337.25
2022-11-25T09:03:44.953Z,99334.53
2022-11-25T09:05:18.897Z,99333.56
2022-11-25T09:06:52.077Z,99333.63
2022-11-25T09:08:25.832Z,99338.13
2022-11-25T09:09:59.151Z,99339.72
2022-11-25T09:11:32.496Z,99330.19
2022-11-25T09:13:05.768Z,99341.78
2022-11-25T09:14:40.637Z,99333.84
2022-11-25T09:16:15.265Z,99338.16
2022-11-25T09:17:50.045Z,99337.19
2022-11-25T09:19:23.269Z,99329.81
2022-11-25T09:20:56.455Z,99336.59
2022-11-25T09:22:29.713Z,99321.50
2022-11-25T09:24:03.006Z,99327.59
2022-11-25T09:25:37.357Z,99320.91
2022-11-25T09:27:10.580Z,99326.91
2022-11-25T09:28:43.810Z,99332.78
2022-11-25T09:30:17.654Z,99321.19
2022-11-25T09:31:54.694Z,99331.84
2022-11-25T09:33:29.682Z,99329.91
2022-11-25T09:35:02.939Z,99324.63
2022-11-25T09:36:36.050Z,99325.28
2022-11-25T09:38:09.301Z,99320.84
2022-11-25T09:39:42.540Z,99313.16
2022-11-25T09:41:52.210Z,99310.16
2022-11-25T09:43:54.220Z,99313.63
2022-11-25T09:45:53.923Z,99317.16
2022-11-25T09:47:34.837Z,99311.88
2022-11-25T09:49:29.680Z,99316.03
2022-11-25T09:51:17.285Z,99315.81
2022-11-25T09:53:03.865Z,99326.34
2022-11-25T09:54:39.982Z,99309.84
2022-11-25T09:56:27.026Z,99310.69
2022-11-25T09:58:13.455Z,99327.06
2022-11-25T09:59:51.920Z,99325.28
2022-11-25T10:01:28.301Z,99315.56
2022-11-25T10:03:08.100Z,99314.81
2022-11-25T10:04:48.427Z,99320.16
2022-11-25T10:06:25.009Z,99331.75
2022-11-25T10:08:02.391Z,99305.31
2022-11-25T10:09:37.284Z,99307.03
2022-11-25T10:11:20.030Z,99329.13
2022-11-25T10:12:55.012Z,99322.88
2022-11-25T10:14:33.596Z,99311.00
2022-11-25T10:16:17.225Z,99318.94
2022-11-25T10:17:54.861Z,99314.22
2022-11-25T10:19:42.262Z,99312.44
2022-11-25T10:21:17.096Z,99317.09
2022-11-25T10:22:53.240Z,99307.50
2022-11-25T10:24:26.868Z,99309.09
2022-11-25T10:26:04.075Z,99311.53
2022-11-25T10:27:44.482Z,99316.84
2022-11-25T10:29:24.738Z,99313.28
2022-11-25T10:31:05.673Z,99309.72
2022-11-25T10:32:44.496Z,99307.84
2022-11-25T10:34:25.115Z,99303.84
2022-11-25T10:36:01.663Z,99307.53
2022-11-25T10:37:42.605Z,99299.78
2022-11-25T10:39:24.415Z,99299.59
2022-11-25T10:40:58.380Z,99299.72
2022-11-25T10:42:32.638Z,99298.69
2022-11-25T10:44:11.279Z,99293.50
2022-11-25T10:45:50.294Z,99295.47
2022-11-25T10:47:37.845Z,99296.38
2022-11-25T10:49:16.957Z,99293.56
2022-11-25T10:51:04.393Z,99293.06
2022-11-25T10:52:43.573Z,99301.84
2022-11-25T10:54:26.858Z,99295.16
2022-11-25T10:56:19.077Z,99291.19
2022-11-25T10:57:52.446Z,99289.38
2022-11-25T10:59:28.615Z,99289.81
2022-11-25T11:01:16.622Z,99290.16
2022-11-25T11:02:50.039Z,99278.56
2022-11-25T11:04:23.376Z,99284.16
2022-11-25T11:05:56.626Z,99272.69
2022-11-25T11:07:33.211Z,99284.69
2022-11-25T11:09:28.057Z,99279.38
2022-11-25T11:11:21.804Z,99283.03
2022-11-25T11:12:59.968Z,99288.16
2022-11-25T11:14:34.804Z,99279.13
2022-11-25T11:16:28.127Z,99277.41
2022-11-25T11:18:15.233Z,99283.69
2022-11-25T11:20:02.520Z,99284.44
2022-11-25T11:21:37.861Z,99278.06
2022-11-25T11:23:14.454Z,99275.00
2022-11-25T11:24:49.089Z,99281.75
2022-11-25T11:26:27.531Z,99279.03
2022-11-25T11:28:01.801Z,99275.88
2022-11-25T11:29:35.268Z,99269.88
2022-11-25T11:31:17.671Z,99264.94
2022-11-25T11:32:58.717Z,99268.00
2022-11-25T11:34:49.435Z,99269.72
2022-11-25T11:36:40.785Z,99261.31
2022-11-25T11:38:27.631Z,99277.84
2022-11-25T11:40:20.562Z,99271.44
2022-11-25T11:42:04.343Z,99265.34
2022-11-25T11:44:01.299Z,99266.06
2022-11-25T11:45:52.147Z,99266.16
2022-11-25T11:47:36.985Z,99259.47
2022-11-25T11:49:37.049Z,99258.72
2022-11-25T11:51:19.672Z,99252.84
2022-11-25T11:52:59.581Z,99260.28
2022-11-25T11:54:37.143Z,99266.59
2022-11-25T11:56:35.196Z,99269.19
2022-11-25T11:58:19.460Z,99271.03
2022-11-25T11:59:55.834Z,99266.44
2022-11-25T12:01:50.419Z,99255.13
2022-11-25T12:03:26.791Z,99265.47
2022-11-25T12:05:07.686Z,99254.56
2022-11-25T12:06:44.215Z,99261.75
2022-11-25T12:08:21.559Z,99265.22
2022-11-25T12:09:59.747Z,99257.88
2022-11-25T12:11:38.741Z,99268.88
2022-11-25T12:13:20.519Z,99260.00
2022-11-25T12:15:02.422Z,99250.06
2022-11-25T12:16:41.428Z,99252.28
2022-11-25T12:18:24.632Z,99260.41
2022-11-25T12:20:03.524Z,99274.38
2022-11-25T12:21:44.876Z,99266.66
2022-11-25T12:23:25.351Z,99271.41
2022-11-25T12:25:07.486Z,99274.31
2022-11-25T12:26:50.670Z,99278.78
2022-11-25T12:28:30.022Z,99286.94
2022-11-25T12:30:07.259Z,99285.41
2022-11-25T12:31:44.870Z,99279.03
2022-11-25T12:33:22.802Z,99282.22
2022-11-25T12:35:01.808Z,99283.22
2022-11-25T12:36:38.540Z,99288.41
2022-11-25T12:38:22.260Z,99299.00
2022-11-25T12:40:04.271Z,99295.41
2022-11-25T12:41:45.012Z,99293.69
2022-11-25T12:43:34.740Z,99289.84
2022-11-25T12:45:16.218Z,99300.31
2022-11-25T12:46:50.959Z,99297.69
2022-11-25T12:48:24.248Z,99300.31
2022-11-25T12:49:58.066Z,99295.38
2022-11-25T12:51:52.329Z,99314.53
2022-11-25T12:53:37.272Z,99300.72
2022-11-25T12:55:14.848Z,99300.19
2022-11-25T12:57:09.235Z,99310.38
2022-11-25T12:59:01.686Z,99306.78
2022-11-25T13:00:51.198Z,99295.84
2022-11-25T13:02:48.030Z,99294.97
2022-11-25T13:04:41.792Z,99304.50
2022-11-25T13:06:34.911Z,99306.53
2022-11-25T13:08:20.328Z,99293.38
2022-11-25T13:10:38.044Z,99315.78
2022-11-25T13:12:33.471Z,99318.59
2022-11-25T13:14:19.819Z,99313.53
2022-11-25T13:15:56.050Z,99320.56
2022-11-25T13:17:30.934Z,99319.88
2022-11-25T13:19:11.781Z,99312.97
2022-11-25T13:20:51.061Z,99299.78
2022-11-25T13:22:29.915Z,99321.22
2022-11-25T13:24:03.209Z,99315.78
2022-11-25T13:25:38.229Z,99311.53
2022-11-25T13:27:33.143Z,99315.94
2022-11-25T13:29:42.347Z,99320.28
2022-11-25T13:31:24.002Z,99323.72
2022-11-25T13:32:57.231Z,99327.31
2022-11-25T13:34:32.222Z,99316.38
2022-11-25T13:36:18.696Z,99328.81
2022-11-25T13:37:52.724Z,99319.38
2022-11-25T13:39:33.882Z,99327.81
2022-11-25T13:41:26.140Z,99329.34
2022-11-25T13:43:01.468Z,99333.59
2022-11-25T13:44:37.184Z,99333.75
2022-11-25T13:46:09.673Z,99337.19
2022-11-25T13:47:49.200Z,99338.28
2022-11-25T13:49:30.042Z,99328.81
2022-11-25T13:51:18.497Z,99352.50
2022-11-25T13:53:00.077Z,99343.94
2022-11-25T13:54:38.306Z,99337.91
2022-11-25T13:56:25.378Z,99352.28
2022-11-25T13:58:17.595Z,99355.63
2022-11-25T13:59:54.139Z,99357.25
2022-11-25T14:01:30.292Z,99359.19
2022-11-25T14:03:51.823Z,99364.72
2022-11-25T14:05:50.863Z,99355.03
2022-11-25T14:07:34.744Z,99361.25
2022-11-25T14:09:21.530Z,99357.09
2022-11-25T14:11:06.591Z,99352.75
2022-11-25T14:12:53.641Z,99367.75
2022-11-25T14:14:54.120Z,99369.06
2022-11-25T14:16:52.298Z,99375.09
2022-11-25T14:19:35.213Z,99369.66
2022-11-25T14:20:50.176Z,99373.34
2022-11-25T14:22:44.792Z,99379.56
2022-11-25T14:24:30.280Z,99381.59
2022-11-25T14:26:26.674Z,99390.44
2022-11-25T14:28:11.567Z,99379.22
2022-11-25T14:29:52.542Z,99380.09
2022-11-25T14:31:34.247Z,99377.50
2022-11-25T14:33:13.449Z,99379.97
2022-11-25T14:34:49.422Z,99382.63
2022-11-25T14:36:27.716Z,99382.50
2022-11-25T14:38:04.462Z,99385.16
2022-11-25T14:39:43.057Z,99379.88
2022-11-25T14:41:21.041Z,99381.81
2022-11-25T14:43:00.606Z,99389.88
2022-11-25T14:44:40.790Z,99381.25
2022-11-25T14:46:17.344Z,99386.03
2022-11-25T14:47:51.921Z,99395.00
2022-11-25T14:49:45.237Z,99395.84
2022-11-25T14:51:19.188Z,99400.38
2022-11-25T14:52:53.214Z,99400.78
2022-11-25T14:54:26.391Z,99397.44
2022-11-25T14:56:00.825Z,99400.19
2022-11-25T14:57:35.714Z,99409.00
2022-11-25T14:59:10.580Z,99403.06
2022-11-25T15:00:52.336Z,99402.28
2022-11-25T15:02:30.357Z,99410.25
2022-11-25T15:04:07.561Z,99407.66
2022-11-25T15:05:41.138Z,99408.53
2022-11-25T15:07:21.162Z,99410.56
2022-11-25T15:08:59.281Z,99414.13
2022-11-25T15:10:51.157Z,99403.91
2022-11-25T15:12:34.074Z,99419.75
2022-11-25T15:14:08.126Z,99422.56
2022-11-25T15:15:45.067Z,99417.41
2022-11-25T15:17:28.093Z,99413.91
2022-11-25T15:19:03.481Z,99414.16
2022-11-25T15:20:36.732Z,99415.31
2022-11-25T15:22:23.065Z,99425.91
2022-11-25T15:23:57.237Z,99424.19
2022-11-25T15:25:30.426Z,99421.59
2022-11-25T15:27:04.467Z,99425.34
2022-11-25T15:28:38.987Z,99417.47
2022-11-25T15:30:21.719Z,99422.81
2022-11-25T15:31:56.121Z,99418.59
2022-11-25T15:33:31.455Z,99422.16
2022-11-25T15:35:19.052Z,99431.16
2022-11-25T15:39:18.890Z,99425.28
2022-11-25T15:41:00.240Z,99427.09
2022-11-25T15:42:33.839Z,99428.03
2022-11-25T15:44:07.746Z,99414.91
2022-11-25T15:45:46.301Z,99431.63
2022-11-25T15:47:24.285Z,99421.09
2022-11-25T15:49:01.830Z,99411.69
2022-11-25T15:50:35.321Z,99423.75
2022-11-25T15:52:16.549Z,99418.53
2022-11-25T15:53:54.662Z,99436.22
2022-11-25T15:55:32.276Z,99420.47
2022-11-25T15:57:17.635Z,99429.38
2022-11-25T15:58:50.887Z,99430.47
2022-11-25T16:00:26.547Z,99427.91
2022-11-25T16:01:59.904Z,99436.81
2022-11-25T16:03:35.631Z,99428.25
2022-11-25T16:05:27.209Z,99431.88
2022-11-25T16:07:00.671Z,99432.97
2022-11-25T16:08:37.231Z,99441.78
2022-11-25T16:10:19.415Z,99442.66
2022-11-25T16:11:52.537Z,99441.00
2022-11-25T16:13:36.699Z,99442.91
2022-11-25T16:15:17.513Z,99442.03
2022-11-25T16:16:50.879Z,99455.25
2022-11-25T16:18:46.675Z,99448.41
2022-11-25T16:20:28.378Z,99449.28
2022-11-25T16:22:04.231Z,99455.63
2022-11-25T16:23:40.390Z,99453.34
2022-11-25T16:25:17.512Z,99463.75
2022-11-25T16:26:54.352Z,99461.13
2022-11-25T16:28:27.911Z,99477.06
2022-11-25T16:30:18.381Z,99468.41
2022-11-25T16:31:50.857Z,99459.81
2022-11-25T16:33:24.822Z,99468.63
2022-11-25T16:35:01.995Z,99468.69
2022-11-25T16:36:36.528Z,99481.06
2022-11-25T16:38:11.499Z,99468.91
2022-11-25T16:39:44.759Z,99468.97
2022-11-25T16:41:22.031Z,99474.38
2022-11-25T16:42:55.295Z,99474.47
2022-11-25T16:44:29.755Z,99474.56
2022-11-25T16:46:03.217Z,99466.78
2022-11-25T16:47:36.499Z,99462.50
2022-11-25T16:49:15.023Z,99474.06
2022-11-25T16:50:48.399Z,99489.16
2022-11-25T16:52:23.430Z,99482.28
2022-11-25T16:53:56.594Z,99482.50
2022-11-25T16:55:29.943Z,99486.91
2022-11-25T16:57:05.346Z,99484.28
2022-11-25T16:58:38.602Z,99477.28
2022-11-25T17:00:17.254Z,99480.75
2022-11-25T17:01:50.758Z,99493.00
2022-11-25T17:03:26.172Z,99493.88
2022-11-25T17:05:01.322Z,99490.44
2022-11-25T17:06:34.572Z,99492.31
2022-11-25T17:08:09.275Z,99491.59
2022-11-25T17:09:44.205Z,99491.72
2022-11-25T17:11:22.518Z,99495.31
2022-11-25T17:12:57.108Z,99504.09
2022-11-25T17:14:32.961Z,99503.25
2022-11-25T17:16:07.106Z,99505.06
2022-11-25T17:17:41.184Z,99507.63
2022-11-25T17:19:17.039Z,99510.22
2022-11-25T17:20:50.340Z,99516.38
2022-11-25T17:22:26.277Z,99517.19
2022-11-25T17:24:03.776Z,99518.03
2022-11-25T17:25:37.355Z,99520.78
2022-11-25T17:27:19.035Z,99519.97
2022-11-25T17:28:55.921Z,99513.09
2022-11-25T17:30:29.450Z,99517.47
2022-11-25T17:32:03.265Z,99518.41
2022-11-25T17:33:36.895Z,99515.00
2022-11-25T17:35:18.966Z,99520.31
2022-11-25T17:36:52.329Z,99518.56
2022-11-25T17:38:25.612Z,99529.16
2022-11-25T17:40:00.123Z,99524.78
2022-11-25T17:41:39.560Z,99530.97
2022-11-25T17:43:16.705Z,99538.00
2022-11-25T17:44:54.080Z,99534.50
2022-11-25T17:46:29.650Z,99523.19
2022-11-25T17:48:02.844Z,99536.28
2022-11-25T17:49:36.110Z,99535.47
2022-11-25T17:51:09.821Z,99543.41
2022-11-25T17:52:43.141Z,99537.25
2022-11-25T17:54:18.248Z,99544.34
2022-11-25T17:55:53.572Z,99536.59
2022-11-25T17:57:29.300Z,99540.16
2022-11-25T17:59:05.098Z,99550.78
2022-11-25T18:00:39.715Z,99547.38
2022-11-25T18:02:19.651Z,99551.88
2022-11-25T18:03:54.142Z,99550.25
2022-11-25T18:05:28.536Z,99558.16
2022-11-25T18:07:01.804Z,99558.16
2022-11-25T18:08:35.183Z,99560.00
2022-11-25T18:10:10.025Z,99561.72
2022-11-25T18:11:49.068Z,99563.47
2022-11-25T18:13:22.941Z,99567.81
2022-11-25T18:14:57.112Z,99565.25
2022-11-25T18:16:31.217Z,99567.03
2022-11-25T18:18:07.644Z,99568.00
2022-11-25T18:19:40.818Z,99559.28
2022-11-25T18:21:14.326Z,99565.44
2022-11-25T18:22:48.246Z,99561.16
2022-11-25T18:24:21.459Z,99570.78
2022-11-25T18:25:57.175Z,99579.75
2022-11-25T18:27:32.197Z,99577.94
2022-11-25T18:29:08.128Z,99575.31
2022-11-25T18:30:41.457Z,99579.66
2022-11-25T18:32:14.738Z,99581.44
2022-11-25T18:33:47.865Z,99577.09
2022-11-25T18:35:23.353Z,99577.97
2022-11-25T18:36:56.529Z,99578.91
2022-11-25T18:38:29.782Z,99579.78
2022-11-25T18:40:03.006Z,99590.28
2022-11-25T18:41:36.380Z,99586.72
2022-11-25T18:43:16.540Z,99593.81
2022-11-25T18:44:50.199Z,99592.00
2022-11-25T18:46:23.524Z,99586.69
2022-11-25T18:47:56.844Z,99586.69
2022-11-25T18:49:30.028Z,99595.38
2022-11-25T18:51:03.262Z,99595.34
2022-11-25T18:52:36.462Z,99598.88
2022-11-25T18:54:10.507Z,99595.41
2022-11-25T18:55:44.353Z,99604.22
2022-11-25T18:57:17.609Z,99596.34
2022-11-25T18:58:53.187Z,99598.13
2022-11-25T19:00:33.359Z,99599.91
2022-11-25T19:02:15.679Z,99614.72
2022-11-25T19:03:49.639Z,99613.13
2022-11-25T19:05:24.829Z,99618.44
2022-11-25T19:06:57.964Z,99621.97